KWMC/WMC METAR and TAF weather

Enter ICAO airport designator
Station Type Date Time Source
KWMC METAR 2020/08/07 11:56 UTC NOAA

KWMC 071156Z AUTO 36014KT 10SM CLR 17/05 A3003 RMK AO2 SLP116 T01670050 10233 20161 51016


Station Type Date Time Source
KWMC Decoded METAR 2020/08/07 11:56 UTC NOAA

WINNEMUCCA MUNICIPAL AIRPORT, NV, United States (KWMC) 40-54N 117-48W 1310M
Aug 07, 2020 - 07:56 AM EDT / 2020.08.07 1156 UTC
Wind: from the N (360 degrees) at 16 MPH (14 KT):0
Visibility: 10 mile(s):0
Sky conditions: clear
Temperature: 62.1 F (16.7 C)
Dew Point: 41.0 F (5.0 C)
Relative Humidity: 45%
Pressure (altimeter): 30.03 in. Hg (1016 hPa)
Pressure tendency: 0.05 inches (1.6 hPa) higher than three hours ago
ob: KWMC 071156Z AUTO 36014KT 10SM CLR 17/05 A3003 RMK AO2 SLP116 T01670050 10233 20161 51016
cycle: 12

Station Type Date Time Source
KWMC TAF 2020/08/07 12:22 UTC NOAA

TAF KWMC 071120Z 0712/0812 34008KT P6SM FEW140
FM080600 02012KT P6SM SKC

Example: see airport list